Time;durP1;ratioP1;P1;durP2;ratioP2;P2;SDS_P1;SDS_P2;PMS_P1;PMS_P2;Temp;Humidity;BMP_temperature;BMP_pressure;BME280_temperature;BME280_humidity;BME280_pressure;Samples;Min_cycle;Max_cycle;Signal;HPM_P1;HPM_P2
2021/03/06 00:00:57;;;;;;;50.38;30.25;;;;;;;-1.14;67.10;101720.25;128192;1100;24313;-78
2021/03/06 00:03:27;;;;;;;47.03;28.07;;;;;;;-1.16;67.69;101716.90;128016;1101;22521;-77
2021/03/06 00:05:56;;;;;;;53.83;28.92;;;;;;;-1.16;67.48;101720.33;128037;1100;22496;-77
2021/03/06 00:08:25;;;;;;;45.28;25.97;;;;;;;-1.15;67.12;101721.17;128071;1101;22605;-77
2021/03/06 00:10:56;;;;;;;45.50;27.55;;;;;;;-1.13;67.81;101725.40;128245;1099;22596;-77
2021/03/06 00:13:25;;;;;;;41.85;25.27;;;;;;;-1.13;67.21;101727.12;128105;1101;23501;-78
2021/03/06 00:15:55;;;;;;;48.92;28.23;;;;;;;-1.16;67.45;101720.33;127961;1099;22496;-77
2021/03/06 00:18:23;;;;;;;44.75;26.48;;;;;;;-1.16;67.41;101722.08;128008;1101;24486;-77
2021/03/06 00:20:51;;;;;;;43.23;26.50;;;;;;;-1.17;67.49;101720.38;128210;1100;22516;-77
2021/03/06 00:23:20;;;;;;;48.55;28.52;;;;;;;-1.19;67.43;101718.69;128185;1101;22605;-77
2021/03/06 00:25:48;;;;;;;46.15;26.87;;;;;;;-1.20;67.70;101721.33;127977;1101;23275;-77
2021/03/06 00:28:16;;;;;;;44.83;26.87;;;;;;;-1.22;67.71;101720.56;128175;1101;22497;-77
2021/03/06 00:30:44;;;;;;;46.55;26.82;;;;;;;-1.23;67.24;101721.47;128202;1101;24380;-77
2021/03/06 00:33:12;;;;;;;47.15;27.20;;;;;;;-1.23;67.79;101724.06;127952;1101;22635;-77
2021/03/06 00:35:41;;;;;;;47.60;27.10;;;;;;;-1.26;67.46;101719.83;128256;1099;22503;-78
2021/03/06 00:38:10;;;;;;;43.45;24.85;;;;;;;-1.29;67.51;101709.58;128264;1101;24600;-77
2021/03/06 00:40:38;;;;;;;45.47;25.47;;;;;;;-1.28;67.05;101715.60;128246;1099;22495;-77
2021/03/06 00:43:06;;;;;;;46.92;25.80;;;;;;;-1.31;67.38;101713.96;128030;1099;22505;-77
2021/03/06 00:45:34;;;;;;;44.40;25.45;;;;;;;-1.32;67.88;101712.28;128211;1100;22576;-77
2021/03/06 00:48:02;;;;;;;50.08;25.12;;;;;;;-1.34;67.67;101713.23;128210;1099;22697;-77
2021/03/06 00:50:35;;;;;;;43.37;25.00;;;;;;;-1.35;67.79;101707.21;128229;1101;22492;-77
2021/03/06 00:53:05;;;;;;;40.05;24.10;;;;;;;-1.35;67.72;101704.62;128060;1101;22617;-77
2021/03/06 00:55:33;;;;;;;49.30;24.75;;;;;;;-1.34;67.44;101713.23;128249;1099;25166;-77
2021/03/06 00:58:02;;;;;;;46.42;25.92;;;;;;;-1.33;67.20;101704.55;127966;1100;24600;-77
2021/03/06 01:00:31;;;;;;;50.73;26.10;;;;;;;-1.36;67.35;101702.10;127983;1099;22551;-77
2021/03/06 01:03:02;;;;;;;52.65;24.32;;;;;;;-1.38;67.78;101702.14;128053;1101;24603;-78
2021/03/06 01:05:31;;;;;;;52.78;27.02;;;;;;;-1.38;67.21;101704.73;128304;1099;22638;-77
2021/03/06 01:07:59;;;;;;;52.75;26.80;;;;;;;-1.38;67.16;101701.30;128260;1101;22470;-77
2021/03/06 01:10:32;;;;;;;45.27;25.17;;;;;;;-1.37;67.45;101702.98;128152;1101;22517;-78
2021/03/06 01:13:00;;;;;;;48.75;26.80;;;;;;;-1.40;67.55;101698.75;128174;1101;22492;-77
2021/03/06 01:15:28;;;;;;;47.38;25.90;;;;;;;-1.43;67.71;101699.73;128246;1101;22490;-77
2021/03/06 01:17:56;;;;;;;44.83;26.17;;;;;;;-1.47;67.26;101697.30;128218;1099;22490;-78
2021/03/06 01:20:25;;;;;;;51.53;27.25;;;;;;;-1.50;67.32;101697.41;128198;1101;22602;-77
2021/03/06 01:22:54;;;;;;;50.98;28.00;;;;;;;-1.52;67.55;101694.89;128296;1099;25031;-77
2021/03/06 01:25:22;;;;;;;53.83;29.00;;;;;;;-1.55;67.29;101707.95;128012;1101;23479;-78
2021/03/06 01:27:51;;;;;;;47.10;27.50;;;;;;;-1.58;67.47;101700.30;127996;1101;22503;-78
2021/03/06 01:30:20;;;;;;;57.33;28.25;;;;;;;-1.60;67.00;101703.84;128160;1099;24291;-78
2021/03/06 01:32:48;;;;;;;43.58;25.60;;;;;;;-1.62;67.36;101711.68;128176;1100;22526;-77
2021/03/06 01:35:22;;;;;;;46.35;26.35;;;;;;;-1.63;67.53;101711.72;128005;1101;22579;-77
2021/03/06 01:37:51;;;;;;;47.85;26.15;;;;;;;-1.63;67.43;101711.72;128277;1099;22492;-78
2021/03/06 01:40:36;;;;;;;48.15;26.55;;;;;;;-1.64;67.54;101703.11;127973;1100;25306;-78
2021/03/06 01:43:08;;;;;;;41.48;24.95;;;;;;;-1.63;67.60;101709.13;128212;1101;22847;-78
2021/03/06 01:45:38;;;;;;;47.03;25.97;;;;;;;-1.63;67.95;101714.31;128013;1101;22570;-78
2021/03/06 01:48:07;;;;;;;50.52;27.45;;;;;;;-1.62;67.99;101710.84;128280;1099;22618;-78
2021/03/06 01:50:45;;;;;;;61.33;32.40;;;;;;;-1.63;67.72;101704.82;128035;1101;22602;-77
2021/03/06 01:53:14;;;;;;;49.18;30.17;;;;;;;-1.65;67.41;101706.61;128270;1099;22594;-78
2021/03/06 01:55:46;;;;;;;53.45;31.07;;;;;;;-1.67;67.62;101701.50;128210;1099;22634;-78
2021/03/06 01:58:16;;;;;;;53.58;32.33;;;;;;;-1.69;67.74;101708.47;128254;1101;22491;-78
2021/03/06 02:00:45;;;;;;;63.13;34.08;;;;;;;-1.71;67.49;101707.67;128212;1100;24272;-78
2021/03/06 02:03:14;;;;;;;61.73;34.18;;;;;;;-1.73;67.77;101708.65;128277;1101;23349;-78
2021/03/06 02:05:44;;;;;;;58.73;32.65;;;;;;;-1.75;67.58;101713.88;128213;1101;22826;-78
2021/03/06 02:08:12;;;;;;;54.50;29.77;;;;;;;-1.76;67.60;101706.16;128248;1099;25245;-77
2021/03/06 02:10:43;;;;;;;56.35;31.42;;;;;;;-1.76;67.81;101706.16;128277;1100;25078;-79
2021/03/06 02:13:53;;;;;;;56.60;30.97;;;;;;;-1.77;67.64;101709.64;128014;1101;22492;-77
2021/03/06 02:16:42;;;;;;;55.30;31.50;;;;;;;-1.83;67.93;101708.13;128214;1101;22496;-77
2021/03/06 02:19:51;;;;;;;53.05;30.30;;;;;;;-1.84;68.31;101700.40;128038;1101;23980;-77
2021/03/06 02:23:17;;;;;;;47.38;25.55;;;;;;;-1.87;68.37;101706.53;128251;1101;22503;-78
2021/03/06 02:25:58;;;;;;;45.08;25.32;;;;;;;-1.90;68.35;101710.09;127949;1102;22541;-78
2021/03/06 02:29:19;;;;;;;45.63;26.37;;;;;;;-1.87;67.99;101716.89;127951;1105;22515;-78
2021/03/06 02:31:51;;;;;;;69.00;38.63;;;;;;;-1.86;67.91;101713.42;127370;1108;22668;-78
2021/03/06 02:34:29;;;;;;;87.88;49.85;;;;;;;-1.86;68.41;101710.83;127499;1106;24620;-78
2021/03/06 02:37:06;;;;;;;79.65;46.48;;;;;;;-1.86;68.28;101717.76;127120;1106;22616;-78
2021/03/06 02:39:41;;;;;;;63.73;37.07;;;;;;;-1.85;68.21;101714.27;127420;1107;22534;-76
2021/03/06 02:42:16;;;;;;;64.92;37.13;;;;;;;-1.85;68.41;101715.09;127444;1106;22510;-76
2021/03/06 02:44:45;;;;;;;63.92;37.48;;;;;;;-1.87;68.00;101711.70;127469;1106;22647;-76
2021/03/06 02:47:14;;;;;;;63.00;34.33;;;;;;;-1.86;68.00;101716.02;127500;1106;22639;-76
2021/03/06 02:50:07;;;;;;;57.45;33.33;;;;;;;-1.86;67.93;101709.99;127490;1105;24645;-79
2021/03/06 02:52:36;;;;;;;53.48;32.45;;;;;;;-1.89;67.87;101710.94;127531;1108;22867;-76
2021/03/06 02:55:08;;;;;;;58.58;33.18;;;;;;;-1.90;67.85;101712.69;127490;1105;22572;-77
2021/03/06 02:58:34;;;;;;;55.40;30.82;;;;;;;-1.90;67.78;101712.69;127492;1106;22510;-77
2021/03/06 03:01:09;;;;;;;52.58;28.65;;;;;;;-1.93;68.45;101717.97;127501;1108;24288;-77
2021/03/06 03:03:59;;;;;;;53.00;27.27;;;;;;;-1.92;68.37;101713.63;127715;1103;25144;-76
2021/03/06 03:06:37;;;;;;;53.80;27.87;;;;;;;-1.94;68.51;101718.01;128035;1104;22731;-77
2021/03/06 03:09:21;;;;;;;58.65;28.80;;;;;;;-1.94;68.52;101723.19;128159;1101;24340;-77
2021/03/06 03:12:18;;;;;;;41.33;24.92;;;;;;;-1.95;68.61;101721.51;128094;1101;24545;-77
2021/03/06 03:14:58;;;;;;;48.30;26.87;;;;;;;-1.97;68.14;101720.70;128240;1100;22530;-78
2021/03/06 03:17:39;;;;;;;46.48;25.77;;;;;;;-1.97;68.12;101720.70;128041;1100;22503;-77
2021/03/06 03:20:33;;;;;;;43.38;24.50;;;;;;;-1.98;68.10;101737.16;128244;1101;22498;-77
2021/03/06 03:23:26;;;;;;;46.20;28.47;;;;;;;-2.01;67.99;101732.92;128146;1100;22607;-77
2021/03/06 03:26:09;;;;;;;48.38;27.90;;;;;;;-2.04;68.37;101737.36;128131;1101;22627;-77
2021/03/06 03:28:42;;;;;;;48.58;28.52;;;;;;;-2.07;68.32;101730.53;128017;1101;24394;-77
2021/03/06 03:31:11;;;;;;;46.13;27.45;;;;;;;-2.07;68.08;101730.53;128000;1101;22533;-77
2021/03/06 03:33:41;;;;;;;48.83;28.38;;;;;;;-2.08;68.07;101735.78;128195;1099;22483;-77
2021/03/06 03:36:11;;;;;;;46.03;27.47;;;;;;;-2.09;68.45;101736.69;128045;1099;22493;-77
2021/03/06 03:38:40;;;;;;;47.48;24.80;;;;;;;-2.10;68.40;101734.97;128225;1101;24594;-77
2021/03/06 03:41:10;;;;;;;50.67;26.85;;;;;;;-2.09;68.11;101741.87;128047;1101;22477;-77
2021/03/06 03:43:40;;;;;;;50.58;27.07;;;;;;;-2.10;68.09;101743.58;127982;1101;22984;-77
2021/03/06 03:46:10;;;;;;;42.85;24.55;;;;;;;-2.11;68.40;101735.88;128206;1099;22507;-77
2021/03/06 03:48:44;;;;;;;41.15;22.62;;;;;;;-2.10;68.01;101746.17;128246;1101;22503;-77
2021/03/06 03:51:13;;;;;;;44.10;25.40;;;;;;;-2.11;68.58;101738.47;128246;1101;22503;-77
2021/03/06 03:53:42;;;;;;;44.27;25.17;;;;;;;-2.13;68.61;101748.89;128208;1101;22492;-77
2021/03/06 03:56:26;;;;;;;45.08;25.15;;;;;;;-2.14;68.60;101754.95;128034;1101;23497;-77
2021/03/06 03:58:55;;;;;;;50.88;25.77;;;;;;;-2.16;68.61;101749.00;128208;1101;22494;-77
2021/03/06 04:01:23;;;;;;;37.53;22.20;;;;;;;-2.19;68.21;101749.09;128006;1101;22614;-77
2021/03/06 04:03:51;;;;;;;40.90;22.42;;;;;;;-2.19;68.38;101756.86;128222;1100;22488;-76
2021/03/06 04:06:19;;;;;;;31.27;20.62;;;;;;;-2.17;68.62;101757.64;128016;1101;22585;-77
2021/03/06 04:08:48;;;;;;;39.55;21.12;;;;;;;-2.18;68.78;101754.20;128257;1100;22502;-77
2021/03/06 04:11:16;;;;;;;41.68;22.93;;;;;;;-2.14;68.43;101757.54;128276;1099;25048;-78
2021/03/06 04:13:44;;;;;;;40.88;22.48;;;;;;;-2.12;68.70;101752.33;128241;1101;22646;-77
2021/03/06 04:16:12;;;;;;;41.00;24.20;;;;;;;-2.13;68.46;101748.89;128218;1101;22503;-77
2021/03/06 04:18:40;;;;;;;41.10;23.90;;;;;;;-2.14;68.20;101754.95;128281;1101;24323;-77
2021/03/06 04:21:08;;;;;;;34.75;22.30;;;;;;;-2.14;68.66;101749.77;128267;1101;22493;-77
2021/03/06 04:23:36;;;;;;;36.30;23.55;;;;;;;-2.16;68.55;101761.94;128248;1101;25145;-77
2021/03/06 04:26:04;;;;;;;40.52;22.82;;;;;;;-2.19;68.26;101751.69;128255;1099;22512;-77
2021/03/06 04:28:33;;;;;;;41.13;25.17;;;;;;;-2.21;68.33;101754.31;128233;1099;22569;-77
2021/03/06 04:31:01;;;;;;;39.03;24.47;;;;;;;-2.21;68.40;101745.70;128285;1099;22487;-78
2021/03/06 04:33:29;;;;;;;40.65;24.60;;;;;;;-2.23;68.48;101750.08;128244;1099;22492;-78
2021/03/06 04:35:58;;;;;;;51.40;27.87;;;;;;;-2.24;68.02;101748.39;128242;1101;22526;-78
2021/03/06 04:38:26;;;;;;;48.95;27.22;;;;;;;-2.26;68.15;101751.05;128255;1099;24544;-78
2021/03/06 04:40:54;;;;;;;44.08;24.72;;;;;;;-2.27;68.46;101749.34;128047;1101;22541;-78
2021/03/06 04:43:23;;;;;;;43.53;25.53;;;;;;;-2.29;68.42;101755.48;127994;1101;22501;-78
2021/03/06 04:45:51;;;;;;;44.18;25.43;;;;;;;-2.30;68.33;101748.59;128030;1099;24032;-78
2021/03/06 04:48:19;;;;;;;45.80;24.75;;;;;;;-2.30;68.44;101744.29;128182;1100;22505;-78
2021/03/06 04:50:48;;;;;;;43.78;26.40;;;;;;;-2.30;68.57;101752.05;128266;1100;24581;-78
2021/03/06 04:53:16;;;;;;;50.80;25.88;;;;;;;-2.29;68.70;101752.89;128275;1099;25286;-78
2021/03/06 04:55:45;;;;;;;40.33;25.17;;;;;;;-2.29;68.46;101758.07;128113;1101;22494;-79
2021/03/06 04:58:13;;;;;;;47.25;26.75;;;;;;;-2.32;68.35;101753.83;128439;1099;22940;-76
2021/03/06 05:00:41;;;;;;;53.92;27.87;;;;;;;-2.31;68.67;101754.67;128607;1101;22536;-79
2021/03/06 05:03:09;;;;;;;49.15;26.95;;;;;;;-2.30;68.63;101757.23;128494;1099;24673;-77
2021/03/06 05:05:38;;;;;;;45.20;25.60;;;;;;;-2.29;68.50;101763.25;128133;1101;25119;-77
2021/03/06 05:08:06;;;;;;;53.05;26.90;;;;;;;-2.27;68.65;101751.92;128482;1099;22512;-77
2021/03/06 05:10:34;;;;;;;47.75;25.95;;;;;;;-2.26;68.53;101763.15;128343;1099;24688;-77
2021/03/06 05:13:02;;;;;;;47.98;26.87;;;;;;;-2.25;69.02;101760.49;128465;1101;22491;-78
2021/03/06 05:15:32;;;;;;;42.73;26.97;;;;;;;-2.23;68.76;101768.20;128430;1101;22508;-78
2021/03/06 05:18:00;;;;;;;52.30;30.70;;;;;;;-2.21;69.05;101761.23;128217;1101;22599;-78
2021/03/06 05:20:28;;;;;;;62.30;31.87;;;;;;;-2.20;68.73;101761.20;128626;1100;25141;-78
2021/03/06 05:22:57;;;;;;;66.28;34.75;;;;;;;-2.17;68.88;101762.81;128417;1101;22489;-77
2021/03/06 05:25:25;;;;;;;59.15;34.33;;;;;;;-2.15;68.73;101766.22;128296;1101;22792;-77
2021/03/06 05:27:54;;;;;;;59.83;34.43;;;;;;;-2.14;68.85;101765.31;128462;1099;22489;-77
2021/03/06 05:30:23;;;;;;;55.30;33.42;;;;;;;-2.14;68.97;101773.07;128400;1100;22483;-78
2021/03/06 05:32:51;;;;;;;63.83;35.15;;;;;;;-2.13;68.89;101769.61;128550;1101;22585;-77
2021/03/06 05:35:19;;;;;;;61.70;34.67;;;;;;;-2.11;69.16;101772.97;128538;1100;23495;-78
2021/03/06 05:37:47;;;;;;;53.00;31.90;;;;;;;-2.07;68.70;101768.53;128646;1100;22499;-77
2021/03/06 05:40:16;;;;;;;48.68;29.48;;;;;;;-2.04;68.65;101773.61;128681;1101;22488;-77
2021/03/06 05:42:50;;;;;;;55.73;33.92;;;;;;;-2.04;68.67;101769.27;128995;1100;22534;-78
2021/03/06 05:45:29;;;;;;;49.67;29.07;;;;;;;-2.01;69.18;101776.09;129226;1101;22542;-78
2021/03/06 05:48:08;;;;;;;48.50;28.47;;;;;;;-1.97;69.40;101772.50;128721;1099;22481;-77
2021/03/06 05:50:41;;;;;;;53.75;29.15;;;;;;;-1.93;69.38;101768.93;129007;1101;22588;-78
2021/03/06 05:53:20;;;;;;;54.60;29.70;;;;;;;-1.89;68.82;101775.69;128417;1101;22573;-77
2021/03/06 05:55:52;;;;;;;51.00;30.33;;;;;;;-1.85;69.20;101779.02;128003;1101;22692;-77
2021/03/06 05:58:22;;;;;;;54.63;28.38;;;;;;;-1.84;68.82;101780.70;128291;1100;22500;-77
2021/03/06 06:00:52;;;;;;;47.55;26.90;;;;;;;-1.82;69.25;101784.09;128152;1101;22521;-78
2021/03/06 06:03:22;;;;;;;47.13;28.52;;;;;;;-1.81;68.99;101783.19;128246;1101;22523;-78
2021/03/06 06:05:53;;;;;;;40.00;25.70;;;;;;;-1.79;68.98;101786.58;128195;1101;22526;-78
2021/03/06 06:08:26;;;;;;;41.93;25.67;;;;;;;-1.76;68.99;101791.66;128205;1100;25109;-78
2021/03/06 06:10:54;;;;;;;45.55;27.98;;;;;;;-1.74;69.32;101788.09;128277;1101;22516;-78
2021/03/06 06:13:22;;;;;;;43.38;26.68;;;;;;;-1.71;68.93;101798.34;127990;1101;22612;-78
2021/03/06 06:15:55;;;;;;;44.40;28.98;;;;;;;-1.65;69.04;101797.30;128232;1099;22500;-78
2021/03/06 06:18:25;;;;;;;53.13;28.87;;;;;;;-1.59;69.31;101801.43;128229;1101;23495;-78
2021/03/06 06:20:54;;;;;;;49.08;30.68;;;;;;;-1.53;69.09;101811.58;128204;1099;24639;-78
2021/03/06 06:23:22;;;;;;;66.25;37.58;;;;;;;-1.47;68.95;101813.92;128218;1101;24625;-78
2021/03/06 06:25:50;;;;;;;70.65;36.23;;;;;;;-1.39;69.48;101816.27;128246;1100;22519;-78
2021/03/06 06:28:20;;;;;;;75.40;39.13;;;;;;;-1.36;68.76;101818.75;127981;1100;22505;-79
2021/03/06 06:31:12;;;;;;;75.83;42.05;;;;;;;-1.33;69.25;101813.42;128262;1101;22508;-78
2021/03/06 06:33:41;;;;;;;62.13;36.68;;;;;;;-1.31;68.98;101815.07;128001;1101;25158;-78
2021/03/06 06:36:39;;;;;;;62.38;33.58;;;;;;;-1.28;68.45;101817.55;128187;1099;22639;-78
2021/03/06 06:39:09;;;;;;;47.00;28.12;;;;;;;-1.24;68.78;101826.91;128003;1101;22526;-78
2021/03/06 06:41:56;;;;;;;54.18;32.90;;;;;;;-1.18;68.82;101828.44;127978;1101;23951;-78
2021/03/06 06:44:28;;;;;;;48.87;30.70;;;;;;;-1.14;68.85;101830.02;128227;1101;22486;-77
2021/03/06 06:47:16;;;;;;;47.10;30.72;;;;;;;-1.04;68.84;101825.33;128028;1100;24679;-77
2021/03/06 06:49:47;;;;;;;;;;;;;;;-1.00;68.82;101837.28;128301;1101;22492;-77
2021/03/06 06:52:18;;;;;;;43.87;27.37;;;;;;;-1.00;69.09;101832.97;128187;1101;21304;-77
2021/03/06 06:54:58;;;;;;;51.15;26.33;;;;;;;-0.94;68.76;101834.46;128057;1101;22487;-78
2021/03/06 06:57:27;;;;;;;48.10;26.60;;;;;;;-0.87;68.74;101829.89;127985;1101;22526;-77
2021/03/06 07:00:00;;;;;;;42.17;24.43;;;;;;;-0.76;68.29;101835.53;128233;1101;23251;-78
2021/03/06 07:02:30;;;;;;;39.90;27.00;;;;;;;-0.67;68.70;101839.50;128252;1100;22497;-78
2021/03/06 07:05:01;;;;;;;48.30;25.40;;;;;;;-0.58;68.39;101846.95;128201;1099;22573;-78
2021/03/06 07:07:42;;;;;;;46.73;25.65;;;;;;;-0.45;68.19;101847.31;128051;1099;22505;-78
2021/03/06 07:10:16;;;;;;;41.85;25.08;;;;;;;-0.27;68.65;101851.77;128023;1100;22526;-77
2021/03/06 07:13:00;;;;;;;41.23;23.60;;;;;;;-0.10;68.21;101854.55;127989;1101;24685;-77
2021/03/06 07:15:31;;;;;;;35.83;20.60;;;;;;;0.14;68.72;101850.09;128001;1101;22522;-77
2021/03/06 07:18:05;;;;;;;40.58;25.10;;;;;;;0.38;68.47;101852.56;128007;1101;22604;-77
2021/03/06 07:20:40;;;;;;;33.88;21.07;;;;;;;0.64;67.75;101851.45;128231;1100;23330;-78
2021/03/06 07:23:20;;;;;;;41.00;23.32;;;;;;;0.97;68.60;101850.83;128208;1101;22522;-77
2021/03/06 07:25:57;;;;;;;34.83;20.77;;;;;;;1.38;68.73;101855.00;128262;1099;24603;-77
2021/03/06 07:28:26;;;;;;;45.78;29.90;;;;;;;1.82;68.68;101856.40;128182;1100;22504;-77
2021/03/06 07:30:57;;;;;;;34.08;22.40;;;;;;;2.30;68.06;101860.09;128002;1100;22580;-77
2021/03/06 07:33:26;;;;;;;134.20;72.90;;;;;;;2.75;66.87;101853.45;128203;1100;24414;-77
2021/03/06 07:35:56;;;;;;;45.83;27.45;;;;;;;3.22;66.41;101860.51;128053;1101;22569;-77
2021/03/06 07:38:25;;;;;;;33.25;19.20;;;;;;;3.60;64.42;101858.41;128296;1101;22505;-76
2021/03/06 07:40:58;;;;;;;29.57;16.60;;;;;;;3.90;63.37;101863.67;128045;1101;22693;-78
2021/03/06 07:43:34;;;;;;;25.05;16.55;;;;;;;4.20;62.68;101868.91;128001;1101;22518;-75
2021/03/06 07:46:06;;;;;;;26.62;15.53;;;;;;;4.46;61.93;101862.15;128261;1100;22602;-77
2021/03/06 07:48:51;;;;;;;27.75;16.85;;;;;;;4.76;61.50;101862.99;128244;1100;22526;-75
2021/03/06 07:51:21;;;;;;;28.17;15.18;;;;;;;5.01;59.87;101859.73;127981;1101;22616;-75
2021/03/06 07:53:51;;;;;;;23.57;14.80;;;;;;;5.17;58.69;101863.08;128236;1099;22496;-75
2021/03/06 07:56:19;;;;;;;27.00;15.63;;;;;;;5.42;59.09;101860.58;127964;1101;22616;-76
2021/03/06 07:58:50;;;;;;;69.40;42.27;;;;;;;5.65;57.81;101858.28;128201;1100;22505;-77
2021/03/06 08:01:30;;;;;;;33.97;19.80;;;;;;;5.78;57.05;101861.78;128133;1101;22718;-77
2021/03/06 08:04:07;;;;;;;27.75;20.02;;;;;;;5.91;55.75;101861.83;128289;1100;22929;-78
2021/03/06 08:06:35;;;;;;;21.93;15.13;;;;;;;6.09;56.08;101867.67;128183;1101;24353;-78
2021/03/06 08:09:12;;;;;;;22.27;15.13;;;;;;;6.31;55.47;101867.09;128301;1101;22782;-76
2021/03/06 08:11:44;;;;;;;21.25;13.75;;;;;;;6.53;54.83;101854.20;128058;1101;22520;-76
2021/03/06 08:14:38;;;;;;;34.80;19.57;;;;;;;6.78;54.30;101865.64;128035;1101;22712;-76
2021/03/06 08:17:33;;;;;;;24.10;14.98;;;;;;;7.00;53.60;101863.20;127939;1101;22769;-76
2021/03/06 08:20:06;;;;;;;25.82;15.40;;;;;;;7.20;53.15;101863.59;127975;1101;24414;-76
2021/03/06 08:22:34;;;;;;;22.37;15.88;;;;;;;7.53;53.37;101873.45;128006;1101;23422;-76
2021/03/06 08:25:21;;;;;;;18.32;11.48;;;;;;;7.67;52.00;101861.96;128135;1100;24230;-76
2021/03/06 08:28:27;;;;;;;20.27;13.43;;;;;;;7.77;51.14;101869.06;128219;1101;22770;-77
2021/03/06 08:30:55;;;;;;;22.82;12.58;;;;;;;7.94;51.35;101873.08;128202;1101;22570;-76
2021/03/06 08:33:25;;;;;;;20.43;12.03;;;;;;;8.05;50.10;101866.18;128170;1099;22510;-76
2021/03/06 08:36:22;;;;;;;19.00;11.30;;;;;;;7.98;49.67;101876.33;128148;1099;22522;-76
2021/03/06 08:38:51;;;;;;;16.87;11.63;;;;;;;7.76;49.50;101871.78;128139;1100;22523;-76
2021/03/06 08:41:20;;;;;;;23.32;15.63;;;;;;;7.77;49.97;101873.48;128041;1101;22534;-76
2021/03/06 08:43:48;;;;;;;27.27;17.53;;;;;;;8.16;51.18;101871.47;127970;1101;22508;-81
2021/03/06 08:46:17;;;;;;;24.30;15.78;;;;;;;8.55;50.24;101875.55;127928;1101;22509;-81
2021/03/06 08:48:46;;;;;;;28.73;19.10;;;;;;;8.71;48.66;101870.79;127962;1101;23523;-80
2021/03/06 08:51:15;;;;;;;24.90;16.25;;;;;;;8.82;47.82;101869.95;128012;1101;22466;-80
2021/03/06 08:53:43;;;;;;;21.77;13.48;;;;;;;8.90;47.68;101870.21;128137;1101;22617;-80
2021/03/06 08:56:11;;;;;;;15.03;10.28;;;;;;;9.01;47.20;101879.91;127999;1101;23463;-78
2021/03/06 08:58:47;;;;;;;16.12;10.63;;;;;;;9.12;46.58;101868.52;128246;1100;22478;-80
2021/03/06 09:01:15;;;;;;;18.48;13.30;;;;;;;9.11;46.44;101866.84;128167;1101;24851;-79
2021/03/06 09:03:48;;;;;;;14.73;10.90;;;;;;;9.52;47.53;101871.44;128176;1101;24455;-79
2021/03/06 09:06:17;;;;;;;27.90;16.65;;;;;;;9.98;46.70;101869.50;127996;1099;22487;-79
2021/03/06 09:08:53;;;;;;;23.87;14.75;;;;;;;10.29;46.01;101870.45;128246;1101;22495;-79
2021/03/06 09:11:21;;;;;;;18.77;12.33;;;;;;;10.59;45.07;101869.66;128266;1100;24648;-79
2021/03/06 09:13:50;;;;;;;16.48;12.15;;;;;;;10.85;44.57;101870.07;127962;1101;22835;-79
2021/03/06 09:16:18;;;;;;;17.95;13.90;;;;;;;11.15;44.13;101873.67;128196;1101;22636;-79
2021/03/06 09:18:46;;;;;;;21.37;12.33;;;;;;;11.32;43.07;101873.02;128018;1101;24419;-79
2021/03/06 09:21:20;;;;;;;15.28;9.15;;;;;;;11.53;42.88;101872.95;127997;1100;22970;-79
2021/03/06 09:23:52;;;;;;;15.55;8.73;;;;;;;11.73;42.74;101879.94;128051;1101;24430;-78
2021/03/06 09:26:27;;;;;;;10.53;7.17;;;;;;;11.83;41.33;101871.14;128253;1101;22525;-81
2021/03/06 09:28:56;;;;;;;14.68;7.72;;;;;;;11.85;41.30;101871.88;127980;1101;22492;-80
2021/03/06 09:31:34;;;;;;;10.48;6.80;;;;;;;11.65;40.25;101869.18;128009;1101;22509;-79
2021/03/06 09:34:03;;;;;;;13.68;8.15;;;;;;;11.54;40.58;101864.85;127972;1101;22524;-80
2021/03/06 09:36:32;;;;;;;15.55;7.28;;;;;;;11.54;40.23;101869.31;128237;1101;22578;-80
2021/03/06 09:39:05;;;;;;;15.58;8.38;;;;;;;11.53;40.01;101862.36;127935;1101;22485;-80
2021/03/06 09:41:38;;;;;;;17.80;9.43;;;;;;;11.41;39.48;101869.56;128235;1100;24272;-79
2021/03/06 09:44:09;;;;;;;14.50;8.63;;;;;;;11.21;39.16;101859.91;128264;1101;22526;-79
2021/03/06 09:46:38;;;;;;;12.90;7.43;;;;;;;11.21;40.10;101859.91;128250;1100;22524;-78
2021/03/06 09:49:09;;;;;;;12.43;8.15;;;;;;;11.08;39.36;101860.97;127920;1100;22492;-80
2021/03/06 09:51:54;;;;;;;11.38;7.08;;;;;;;10.93;38.90;101856.17;128006;1101;22507;-79
2021/03/06 09:54:25;;;;;;;21.90;8.55;;;;;;;10.82;39.28;101847.37;128019;1100;22508;-79
2021/03/06 09:57:01;;;;;;;12.60;8.53;;;;;;;10.91;39.43;101848.39;128234;1100;22501;-79
2021/03/06 09:59:36;;;;;;;10.47;6.07;;;;;;;10.90;38.57;101851.19;127988;1101;22522;-79
2021/03/06 10:02:13;;;;;;;10.82;6.47;;;;;;;10.85;38.62;101846.28;128049;1101;22492;-79
2021/03/06 10:04:46;;;;;;;13.60;7.10;;;;;;;10.88;38.42;101853.11;128032;1100;25155;-79
2021/03/06 10:07:15;;;;;;;13.95;6.28;;;;;;;10.75;38.15;101850.69;127951;1101;22493;-79
2021/03/06 10:09:43;;;;;;;8.33;6.12;;;;;;;10.68;37.85;101853.02;127986;1101;24597;-79
2021/03/06 10:12:16;;;;;;;8.05;5.08;;;;;;;10.60;37.57;101858.14;128082;1101;22938;-79
2021/03/06 10:14:51;;;;;;;11.78;6.08;;;;;;;10.57;37.51;101858.40;128279;1099;22556;-79
2021/03/06 10:17:24;;;;;;;8.80;7.00;;;;;;;10.68;37.88;101858.30;128044;1100;24933;-79
2021/03/06 10:19:56;;;;;;;10.23;6.78;;;;;;;10.84;37.55;101855.19;128001;1101;23326;-79
2021/03/06 10:22:25;;;;;;;11.08;5.85;;;;;;;10.92;37.38;101849.23;128028;1101;24295;-79
2021/03/06 10:25:04;;;;;;;10.85;6.20;;;;;;;10.99;37.19;101853.84;128687;1099;24584;-80
2021/03/06 10:27:44;;;;;;;9.20;6.78;;;;;;;11.17;37.20;101851.41;128100;1100;22636;-77
2021/03/06 10:30:30;;;;;;;8.35;5.62;;;;;;;11.34;37.16;101847.27;128241;1101;22490;-78
2021/03/06 10:33:01;;;;;;;15.55;8.18;;;;;;;11.41;36.38;101847.56;127996;1101;22594;-79
2021/03/06 10:35:50;;;;;;;9.50;6.22;;;;;;;11.49;36.18;101853.00;128035;1101;22505;-79
2021/03/06 10:38:19;;;;;;;10.48;6.85;;;;;;;11.60;36.19;101846.77;128280;1101;22492;-79
2021/03/06 10:40:52;;;;;;;8.85;5.85;;;;;;;11.54;34.97;101853.44;128222;1101;22522;-79
2021/03/06 10:43:43;;;;;;;10.28;6.67;;;;;;;11.48;35.14;101849.52;128228;1099;24578;-79
2021/03/06 10:46:30;;;;;;;13.47;7.43;;;;;;;11.53;34.66;101846.48;128106;1099;22586;-79
2021/03/06 10:49:08;;;;;;;12.85;6.83;;;;;;;11.61;34.47;101833.37;128358;1101;23880;-77
2021/03/06 10:51:49;;;;;;;16.00;9.43;;;;;;;11.49;34.18;101840.59;128218;1101;22524;-79
2021/03/06 10:54:21;;;;;;;12.00;6.33;;;;;;;11.43;34.06;101837.66;128239;1100;22638;-78
2021/03/06 10:57:05;;;;;;;7.78;4.90;;;;;;;11.51;34.07;101829.89;128028;1101;24633;-78
2021/03/06 10:59:35;;;;;;;10.15;6.12;;;;;;;11.77;33.75;101836.31;128021;1100;22536;-79
2021/03/06 11:02:05;;;;;;;17.20;10.85;;;;;;;12.06;33.52;101819.59;128096;1101;22567;-79
2021/03/06 11:04:37;;;;;;;9.78;5.47;;;;;;;12.04;32.20;101818.91;128236;1101;22492;-79
2021/03/06 11:07:08;;;;;;;6.28;4.80;;;;;;;11.80;32.07;101814.03;128230;1100;22952;-79
2021/03/06 11:09:39;;;;;;;9.10;5.75;;;;;;;11.77;32.38;101822.25;128072;1101;22548;-79
2021/03/06 11:12:27;;;;;;;9.60;6.20;;;;;;;11.87;32.65;101823.11;127972;1100;24584;-79
2021/03/06 11:15:17;;;;;;;9.43;5.97;;;;;;;11.71;32.11;101812.21;128061;1101;22627;-80
2021/03/06 11:17:51;;;;;;;8.10;4.80;;;;;;;11.27;31.69;101802.00;128004;1101;22500;-79
2021/03/06 11:20:23;;;;;;;9.45;5.62;;;;;;;10.87;32.30;101804.70;128041;1101;24578;-80
2021/03/06 11:22:52;;;;;;;11.63;5.67;;;;;;;10.46;32.63;101793.27;128098;1101;22508;-79
2021/03/06 11:25:22;;;;;;;12.63;5.72;;;;;;;10.09;32.89;101787.58;127986;1101;24428;-77
2021/03/06 11:27:51;;;;;;;11.00;7.20;;;;;;;9.62;33.29;101795.02;128119;1101;22508;-77
2021/03/06 11:30:27;;;;;;;9.78;7.12;;;;;;;9.19;34.09;101778.25;128289;1099;22515;-75
2021/03/06 11:32:57;;;;;;;10.38;6.55;;;;;;;8.79;34.65;101785.03;128243;1101;24693;-76